Time;durP1;ratioP1;P1;durP2;ratioP2;P2;SDS_P1;SDS_P2;PMS_P1;PMS_P2;Temp;Humidity;BMP_temperature;BMP_pressure;BME280_temperature;BME280_humidity;BME280_pressure;Samples;Min_cycle;Max_cycle;Signal;HPM_P1;HPM_P2
2023/10/05 00:02:13;;;;;;;3.90;1.90;;;;;;;15.03;89.67;99314.25;4994212;28;20284;-61
2023/10/05 00:04:45;;;;;;;6.13;2.27;;;;;;;14.99;89.59;99304.81;5004632;28;20284;-60
2023/10/05 00:07:22;;;;;;;6.73;2.27;;;;;;;14.91;88.46;99283.31;4993140;28;20315;-61
2023/10/05 00:09:56;;;;;;;9.00;2.00;;;;;;;14.95;88.24;99300.66;4984246;28;20288;-60
2023/10/05 00:12:28;;;;;;;9.53;2.40;;;;;;;14.94;87.38;99283.13;4975557;28;23156;-59
2023/10/05 00:15:11;;;;;;;4.90;1.80;;;;;;;14.98;85.92;99274.19;4988550;28;20318;-58
2023/10/05 00:17:42;;;;;;;6.03;1.80;;;;;;;15.06;86.88;99279.91;4996692;28;20284;-60
2023/10/05 00:20:15;;;;;;;6.33;1.87;;;;;;;15.16;85.62;99266.28;4996458;28;20794;-61
2023/10/05 00:22:49;;;;;;;5.30;2.13;;;;;;;15.30;85.22;99255.88;5019149;28;20371;-59
2023/10/05 00:25:23;;;;;;;8.10;2.80;;;;;;;15.44;86.62;99258.66;5016096;28;20307;-58
2023/10/05 00:27:55;;;;;;;10.00;2.00;;;;;;;15.47;83.68;99255.84;5026463;28;20307;-61
2023/10/05 00:30:26;;;;;;;5.63;1.97;;;;;;;15.49;84.61;99259.25;5015906;28;20318;-60
2023/10/05 00:32:59;;;;;;;5.23;1.87;;;;;;;15.56;85.28;99258.94;5026617;28;20367;-57
2023/10/05 00:35:33;;;;;;;7.47;2.37;;;;;;;15.63;85.57;99261.16;5016105;28;20367;-58
2023/10/05 00:38:12;;;;;;;8.33;2.10;;;;;;;15.65;85.35;99253.16;5026286;28;20295;-62
2023/10/05 00:40:55;;;;;;;10.02;2.40;;;;;;;15.69;85.89;99249.44;5016466;28;20287;-63
2023/10/05 00:43:27;;;;;;;6.43;1.80;;;;;;;15.70;80.07;99220.44;5016341;28;20049;-61
2023/10/05 00:45:58;;;;;;;6.60;2.37;;;;;;;15.82;80.79;99234.72;5026318;28;20373;-57
2023/10/05 00:48:34;;;;;;;5.37;1.87;;;;;;;15.87;78.32;99227.41;5016146;28;20269;-58
2023/10/05 00:51:09;;;;;;;5.33;2.10;;;;;;;15.82;81.56;99218.06;5026060;28;20279;-59
2023/10/05 00:53:42;;;;;;;12.33;2.30;;;;;;;15.39;80.45;99144.84;4996792;28;20291;-59
2023/10/05 00:56:14;;;;;;;8.83;2.40;;;;;;;16.01;80.64;99212.66;4997701;28;20384;-60
2023/10/05 00:58:47;;;;;;;5.57;2.30;;;;;;;16.31;80.62;99212.72;5007320;28;20287;-60
2023/10/05 01:01:23;;;;;;;5.37;2.47;;;;;;;16.48;79.65;99195.94;4997617;28;20403;-60
2023/10/05 01:04:18;;;;;;;7.03;2.20;;;;;;;16.55;79.65;99198.13;5006975;28;20288;-59
2023/10/05 01:06:55;;;;;;;8.60;2.43;;;;;;;16.79;80.03;99195.84;5025733;28;20381;-60
2023/10/05 01:12:22;;;;;;;5.13;2.10;;;;;;;17.00;78.93;99183.19;4992638;28;20690;-59
2023/10/05 01:14:52;;;;;;;10.57;2.53;;;;;;;17.09;77.27;99181.78;5005966;28;20631;-59
2023/10/05 01:17:25;;;;;;;6.40;2.20;;;;;;;17.04;76.78;99186.47;4996036;28;20268;-60
2023/10/05 01:19:58;;;;;;;5.63;1.97;;;;;;;17.00;78.52;99177.06;5006549;28;20295;-59
2023/10/05 01:22:33;;;;;;;5.80;1.93;;;;;;;16.95;79.13;99185.25;4995980;28;20428;-57
2023/10/05 01:25:07;;;;;;;6.87;1.80;;;;;;;16.87;78.63;99176.94;5004666;28;20296;-59
2023/10/05 01:27:40;;;;;;;12.20;2.47;;;;;;;16.79;77.60;99190.56;5015169;28;20276;-61
2023/10/05 01:30:12;;;;;;;4.23;1.97;;;;;;;16.71;79.04;99176.97;5006943;28;20891;-61
2023/10/05 01:32:44;;;;;;;7.83;1.93;;;;;;;16.60;78.39;99179.41;5005998;28;21108;-61
2023/10/05 01:35:17;;;;;;;7.00;2.53;;;;;;;16.35;79.41;99164.16;4997061;28;20319;-60
2023/10/05 01:37:51;;;;;;;5.00;1.93;;;;;;;16.35;80.29;99180.81;5006520;28;20303;-58
2023/10/05 01:40:30;;;;;;;9.83;2.37;;;;;;;16.17;79.54;99171.31;4996024;28;20316;-59
2023/10/05 01:43:01;;;;;;;16.25;2.50;;;;;;;16.13;80.35;99177.72;5006882;28;20312;-58
2023/10/05 01:45:33;;;;;;;6.33;2.20;;;;;;;16.10;79.25;99180.50;4995403;28;20139;-60
2023/10/05 01:48:13;;;;;;;6.93;2.00;;;;;;;16.03;79.69;99168.63;5006881;28;20296;-62
2023/10/05 01:50:44;;;;;;;8.73;2.40;;;;;;;15.96;81.14;99171.59;5015053;28;20287;-59
2023/10/05 01:53:17;;;;;;;9.67;2.90;;;;;;;15.82;83.02;99175.91;5015104;28;20382;-61
2023/10/05 01:55:52;;;;;;;7.60;2.60;;;;;;;15.70;85.74;99177.44;5020018;28;20276;-59
2023/10/05 01:58:34;;;;;;;7.83;2.33;;;;;;;15.69;87.52;99186.25;4996864;28;20362;-61
2023/10/05 02:01:06;;;;;;;9.83;2.30;;;;;;;15.65;84.68;99171.53;5004976;28;20284;-60
2023/10/05 02:03:38;;;;;;;4.80;1.90;;;;;;;15.62;85.15;99163.81;5002562;28;20311;-60
2023/10/05 02:06:11;;;;;;;9.97;2.30;;;;;;;15.58;85.66;99151.78;4996514;28;20308;-58
2023/10/05 02:08:41;;;;;;;7.80;1.90;;;;;;;15.49;87.06;99147.84;5004829;28;20284;-62
2023/10/05 02:11:18;;;;;;;8.63;2.63;;;;;;;15.37;88.39;99153.75;4995579;28;20284;-60
2023/10/05 02:13:49;;;;;;;9.00;2.47;;;;;;;15.31;90.28;99153.16;5005565;28;20399;-61
2023/10/05 02:16:21;;;;;;;12.43;2.10;;;;;;;15.25;89.83;99147.38;4996379;28;20312;-59
2023/10/05 02:18:53;;;;;;;9.50;2.97;;;;;;;15.17;90.96;99146.94;5005408;28;20276;-58
2023/10/05 02:21:30;;;;;;;10.30;2.13;;;;;;;14.56;92.39;99072.09;4995600;28;20288;-60
2023/10/05 02:24:10;;;;;;;10.30;2.50;;;;;;;14.96;91.62;99139.25;5006109;28;20312;-61
2023/10/05 02:27:09;;;;;;;14.80;2.57;;;;;;;14.99;91.76;99132.97;5014390;28;20311;-62
2023/10/05 02:29:39;;;;;;;7.77;2.03;;;;;;;15.07;90.45;99109.72;5002299;28;20284;-62
2023/10/05 02:32:14;;;;;;;10.10;2.40;;;;;;;15.13;89.77;99108.56;4994895;28;20307;-62
2023/10/05 02:34:59;;;;;;;9.97;2.27;;;;;;;15.07;91.86;99105.31;5004747;28;20292;-60
2023/10/05 02:37:32;;;;;;;11.33;2.10;;;;;;;15.04;93.59;99110.75;5014435;28;20278;-61
2023/10/05 02:40:08;;;;;;;10.70;2.33;;;;;;;15.00;92.07;99103.97;5023839;28;20283;-60
2023/10/05 02:42:41;;;;;;;7.60;2.00;;;;;;;14.96;92.18;99091.91;5013835;28;20287;-60
2023/10/05 02:45:12;;;;;;;9.83;2.40;;;;;;;14.95;92.23;99089.34;5013477;28;20371;-61
2023/10/05 02:47:43;;;;;;;11.07;2.70;;;;;;;15.02;93.29;99081.03;5023669;28;20303;-61
2023/10/05 02:50:14;;;;;;;9.33;2.27;;;;;;;15.06;93.52;99087.84;5013573;28;20279;-60
2023/10/05 02:52:44;;;;;;;8.30;2.43;;;;;;;15.03;91.29;99072.22;5024425;28;20882;-63
2023/10/05 02:55:15;;;;;;;9.00;2.00;;;;;;;14.95;92.28;99078.81;5013454;28;20387;-59
2023/10/05 02:57:47;;;;;;;9.33;2.97;;;;;;;14.87;92.96;99077.44;5024079;28;20291;-59
2023/10/05 03:00:20;;;;;;;16.27;3.30;;;;;;;14.79;94.30;99068.28;5013716;28;20297;-62
2023/10/05 03:02:53;;;;;;;14.47;3.07;;;;;;;14.69;94.49;99067.06;5023504;28;21139;-63
2023/10/05 03:05:25;;;;;;;16.13;2.90;;;;;;;14.61;95.48;99065.69;5013837;28;20283;-60
2023/10/05 03:07:56;;;;;;;13.20;2.93;;;;;;;14.49;97.04;99053.13;5017788;28;20283;-62
2023/10/05 03:10:28;;;;;;;13.00;2.33;;;;;;;14.47;96.95;99062.88;4994978;28;20696;-59
2023/10/05 03:13:01;;;;;;;11.73;3.77;;;;;;;14.35;97.58;99055.63;5004404;28;20342;-59
2023/10/05 03:15:34;;;;;;;11.07;3.27;;;;;;;14.22;99.12;99058.84;5007948;28;20275;-59
2023/10/05 03:18:06;;;;;;;12.57;2.80;;;;;;;14.07;100.00;99059.63;5023206;28;20279;-59
2023/10/05 03:20:36;;;;;;;12.10;3.30;;;;;;;13.99;100.00;99051.28;5012975;28;21048;-59
2023/10/05 03:23:07;;;;;;;14.50;3.60;;;;;;;13.91;100.00;99053.47;5023775;28;20315;-61
2023/10/05 03:25:38;;;;;;;13.30;2.87;;;;;;;13.88;100.00;99037.84;5013852;28;20321;-61
2023/10/05 03:28:10;;;;;;;12.87;3.27;;;;;;;13.84;100.00;99049.44;5020042;28;20287;-59
2023/10/05 03:30:41;;;;;;;14.60;3.13;;;;;;;13.77;100.00;99033.97;5023491;28;20385;-62
2023/10/05 03:33:12;;;;;;;9.30;3.30;;;;;;;13.90;100.00;99046.50;5012856;28;20386;-60
2023/10/05 03:35:45;;;;;;;16.97;3.57;;;;;;;13.91;100.00;99020.16;5023596;28;20337;-60
2023/10/05 03:38:19;;;;;;;10.70;2.90;;;;;;;13.95;100.00;99018.22;5013470;28;20992;-59
2023/10/05 03:40:50;;;;;;;14.97;3.63;;;;;;;13.96;100.00;99019.94;5023623;28;20298;-59
2023/10/05 03:43:23;;;;;;;12.87;3.13;;;;;;;13.98;100.00;99018.09;5013267;28;20294;-59
2023/10/05 03:45:53;;;;;;;16.83;4.00;;;;;;;14.04;100.00;99012.53;5023216;28;20295;-61
2023/10/05 03:48:26;;;;;;;13.07;3.13;;;;;;;14.05;100.00;98998.44;5015879;28;20320;-61
2023/10/05 03:50:56;;;;;;;14.20;3.67;;;;;;;14.13;100.00;99006.81;5027626;28;20287;-60
2023/10/05 03:53:27;;;;;;;15.07;3.53;;;;;;;14.14;100.00;98997.97;5017686;28;20287;-60
2023/10/05 03:55:58;;;;;;;16.73;3.80;;;;;;;14.13;100.00;98998.94;5027786;28;20279;-60
2023/10/05 03:58:30;;;;;;;21.50;3.47;;;;;;;14.14;99.73;98990.09;4998516;28;20833;-61
2023/10/05 04:01:04;;;;;;;12.87;3.80;;;;;;;14.16;99.34;98969.03;5007956;28;20810;-60
2023/10/05 04:03:35;;;;;;;9.53;2.70;;;;;;;14.18;98.43;98962.75;5004428;28;20307;-61
2023/10/05 04:06:16;;;;;;;13.70;3.23;;;;;;;14.11;98.07;98971.88;5026667;28;20294;-62
2023/10/05 04:08:49;;;;;;;15.87;3.73;;;;;;;14.07;98.26;98954.56;5001373;28;20292;-63
2023/10/05 04:11:21;;;;;;;11.93;2.80;;;;;;;14.02;96.40;98946.94;5000876;28;20280;-61
2023/10/05 04:13:53;;;;;;;12.27;3.50;;;;;;;14.02;97.65;98940.81;4990477;28;20393;-61
2023/10/05 04:16:28;;;;;;;11.80;3.83;;;;;;;13.82;97.99;98921.69;4996279;28;20295;-61
2023/10/05 04:18:59;;;;;;;11.47;3.63;;;;;;;14.05;97.15;98950.31;5007402;28;20291;-62
2023/10/05 04:21:30;;;;;;;19.90;4.03;;;;;;;14.02;96.87;98946.09;4988284;28;21074;-61
2023/10/05 04:24:03;;;;;;;15.57;3.67;;;;;;;13.96;96.30;98930.66;5007820;28;20375;-59
2023/10/05 04:26:37;;;;;;;13.67;3.80;;;;;;;14.13;95.48;98954.28;4997214;28;20751;-62
2023/10/05 04:29:09;;;;;;;14.07;3.83;;;;;;;13.92;95.81;98916.81;5007083;28;20372;-63
2023/10/05 04:31:39;;;;;;;13.27;3.57;;;;;;;14.18;96.64;98951.41;5005129;28;20622;-64
2023/10/05 04:34:12;;;;;;;17.20;3.60;;;;;;;14.20;95.39;98945.16;4997442;28;20287;-60
2023/10/05 04:36:45;;;;;;;14.93;4.03;;;;;;;14.19;95.40;98938.19;5007191;28;20292;-59
2023/10/05 04:39:21;;;;;;;11.63;4.00;;;;;;;14.22;95.95;98948.53;4982294;28;20388;-61
2023/10/05 04:41:52;;;;;;;15.53;3.57;;;;;;;14.27;94.66;98960.56;5018312;28;20287;-61
2023/10/05 04:44:24;;;;;;;13.77;3.63;;;;;;;14.18;93.70;98957.50;5006454;28;20666;-60
2023/10/05 04:46:55;;;;;;;16.87;3.43;;;;;;;14.19;92.93;98964.44;5006814;28;20296;-63
2023/10/05 04:49:27;;;;;;;11.20;2.93;;;;;;;14.19;92.63;98938.19;4993361;28;20303;-59
2023/10/05 04:52:00;;;;;;;12.50;3.30;;;;;;;14.23;92.29;98925.75;5014783;28;20288;-61
2023/10/05 04:54:34;;;;;;;11.73;2.90;;;;;;;14.19;90.99;98911.91;5010654;28;20276;-61
2023/10/05 04:57:07;;;;;;;9.13;2.70;;;;;;;14.20;92.80;98907.50;5018407;28;20801;-63
2023/10/05 04:59:48;;;;;;;12.30;3.47;;;;;;;14.21;91.81;98911.84;5008499;28;20290;-61
2023/10/05 05:02:21;;;;;;;16.50;3.43;;;;;;;14.04;91.58;98907.47;5015813;28;20287;-61
2023/10/05 05:05:07;;;;;;;14.50;3.60;;;;;;;13.99;92.31;98914.72;5025837;28;20292;-60
2023/10/05 05:07:38;;;;;;;15.70;3.33;;;;;;;13.90;92.00;98915.19;5010613;28;20302;-59
2023/10/05 05:10:11;;;;;;;13.50;3.33;;;;;;;13.84;92.93;98915.53;5020045;28;20302;-61
2023/10/05 05:12:42;;;;;;;14.00;3.30;;;;;;;13.79;93.22;98903.47;5025661;28;20284;-64
2023/10/05 05:15:15;;;;;;;18.50;3.03;;;;;;;13.80;93.22;98893.81;5015670;28;20322;-59
2023/10/05 05:17:45;;;;;;;18.20;3.43;;;;;;;13.73;93.33;98892.47;5025895;28;20766;-63
2023/10/05 05:20:16;;;;;;;14.73;3.53;;;;;;;13.67;94.08;98911.97;5015581;28;20765;-62
2023/10/05 05:22:47;;;;;;;9.83;2.90;;;;;;;13.63;94.82;98891.19;5025471;28;20761;-61
2023/10/05 05:25:21;;;;;;;12.50;3.47;;;;;;;13.55;94.29;98883.72;5010298;28;20352;-61
2023/10/05 05:27:55;;;;;;;20.97;4.40;;;;;;;13.53;95.41;98872.47;5025183;28;20276;-59
2023/10/05 05:30:29;;;;;;;12.57;3.53;;;;;;;13.52;94.94;98894.38;5015009;28;20287;-60
2023/10/05 05:33:00;;;;;;;15.37;3.90;;;;;;;13.51;96.00;98911.06;5025297;28;20299;-62
2023/10/05 05:35:30;;;;;;;18.87;3.90;;;;;;;13.49;95.43;98905.03;5014988;28;20370;-60
2023/10/05 05:38:02;;;;;;;15.77;3.13;;;;;;;13.48;95.59;98908.56;5025465;28;20290;-60
2023/10/05 05:40:34;;;;;;;17.05;3.33;;;;;;;13.44;94.72;98917.53;5015838;28;20283;-59
2023/10/05 05:43:07;;;;;;;17.03;3.60;;;;;;;13.42;93.64;98909.72;5025331;28;20053;-59
2023/10/05 05:45:43;;;;;;;15.83;3.30;;;;;;;13.42;94.29;98898.38;5006783;28;20286;-59
2023/10/05 05:48:16;;;;;;;18.10;3.60;;;;;;;13.44;94.30;98907.03;5006285;28;20304;-62
2023/10/05 05:50:48;;;;;;;18.10;3.60;;;;;;;13.41;93.37;98900.16;5005359;28;20782;-59
2023/10/05 05:53:19;;;;;;;15.53;3.70;;;;;;;13.33;92.50;98900.56;4995393;28;20069;-60
2023/10/05 05:55:53;;;;;;;12.67;3.10;;;;;;;13.35;90.47;98903.97;5005466;28;20284;-61
2023/10/05 05:58:23;;;;;;;14.90;2.77;;;;;;;13.31;90.17;98910.25;4995593;28;20997;-61
2023/10/05 06:00:57;;;;;;;12.80;3.57;;;;;;;13.29;91.94;98919.97;5005512;28;20619;-60
2023/10/05 06:03:28;;;;;;;10.17;3.20;;;;;;;13.23;92.99;98917.63;4995468;28;20295;-59
2023/10/05 06:06:00;;;;;;;13.90;3.73;;;;;;;13.23;93.23;98920.25;5005218;28;20304;-61
2023/10/05 06:08:30;;;;;;;16.17;3.58;;;;;;;13.23;93.57;98920.25;4998346;28;20879;-58
2023/10/05 06:11:06;;;;;;;12.23;3.42;;;;;;;13.18;93.00;98917.00;5024534;28;20537;-59
2023/10/05 06:13:38;;;;;;;14.23;3.13;;;;;;;13.18;93.07;98917.00;5013636;28;20061;-60
2023/10/05 06:16:10;;;;;;;10.73;2.87;;;;;;;13.14;92.20;98921.53;5019844;28;20602;-60
2023/10/05 06:18:43;;;;;;;12.47;3.13;;;;;;;13.11;92.45;98926.09;5024368;28;20291;-60
2023/10/05 06:21:13;;;;;;;11.65;2.78;;;;;;;13.12;92.71;98938.28;5014147;28;20628;-58
2023/10/05 06:23:44;;;;;;;10.90;2.75;;;;;;;13.09;90.36;98933.19;5023671;28;20169;-61
2023/10/05 06:26:14;;;;;;;12.40;3.13;;;;;;;13.07;90.15;98935.03;5014398;28;20076;-59
2023/10/05 06:28:45;;;;;;;14.57;3.15;;;;;;;13.04;90.52;98936.03;5024327;28;20498;-59
2023/10/05 06:31:17;;;;;;;16.02;2.80;;;;;;;13.01;90.53;98932.72;5014460;28;20053;-60
2023/10/05 06:33:52;;;;;;;10.90;3.00;;;;;;;13.00;90.24;98915.25;5024175;28;20064;-58
2023/10/05 06:36:23;;;;;;;13.80;2.90;;;;;;;12.99;89.97;98917.03;5013711;28;20063;-60
2023/10/05 06:38:56;;;;;;;7.95;2.60;;;;;;;12.95;90.58;98918.97;5024156;28;20057;-60
2023/10/05 06:41:27;;;;;;;16.15;2.75;;;;;;;12.93;90.22;98920.81;5013953;28;20048;-59
2023/10/05 06:43:58;;;;;;;10.00;2.92;;;;;;;12.93;91.01;98939.16;5024122;28;20114;-58
2023/10/05 06:46:31;;;;;;;13.27;3.22;;;;;;;12.91;92.22;98920.03;5014433;28;20050;-60
2023/10/05 06:49:05;;;;;;;7.57;2.67;;;;;;;12.88;92.27;98922.81;5019969;28;20151;-62
2023/10/05 06:51:43;;;;;;;17.00;3.47;;;;;;;12.84;92.96;98908.13;5013278;28;20096;-57
2023/10/05 06:54:17;;;;;;;11.23;3.45;;;;;;;12.89;93.45;98919.25;5008791;28;20053;-60
2023/10/05 06:56:49;;;;;;;11.57;2.85;;;;;;;12.90;94.06;98922.72;5004272;28;20091;-60
2023/10/05 06:59:21;;;;;;;15.68;2.90;;;;;;;12.88;94.49;98893.97;5008692;28;20144;-60
2023/10/05 07:01:53;;;;;;;12.77;2.55;;;;;;;12.88;93.36;98893.97;5024052;28;20049;-60
2023/10/05 07:04:25;;;;;;;10.35;3.28;;;;;;;12.89;93.27;98905.28;5014089;28;20045;-59
2023/10/05 07:06:55;;;;;;;10.13;3.03;;;;;;;12.89;93.13;98885.16;5023747;28;20056;-59
2023/10/05 07:09:26;;;;;;;9.77;3.08;;;;;;;12.90;91.65;98889.50;4994804;28;20093;-60
2023/10/05 07:11:58;;;;;;;17.80;2.85;;;;;;;12.87;90.77;98876.50;5003873;28;20049;-58
2023/10/05 07:14:29;;;;;;;13.00;3.10;;;;;;;12.90;88.98;98879.00;4994162;28;20542;-61
2023/10/05 07:17:01;;;;;;;13.02;3.47;;;;;;;12.90;90.12;98886.88;5003989;28;20065;-59
2023/10/05 07:19:31;;;;;;;10.02;3.20;;;;;;;12.92;90.66;98874.53;4994455;28;20063;-59
2023/10/05 07:22:02;;;;;;;11.15;3.30;;;;;;;12.91;89.59;98878.06;5003113;28;20083;-60
2023/10/05 07:24:34;;;;;;;11.52;2.78;;;;;;;12.93;88.51;98875.41;4991565;28;20392;-60
2023/10/05 07:27:05;;;;;;;12.20;2.90;;;;;;;12.91;87.41;98880.69;5004553;28;20144;-61
2023/10/05 07:29:36;;;;;;;11.57;2.53;;;;;;;12.94;87.30;98888.41;4987041;28;20057;-62
2023/10/05 07:32:11;;;;;;;12.00;2.90;;;;;;;12.93;87.93;98878.84;5004517;28;20045;-59
2023/10/05 07:34:43;;;;;;;11.27;2.70;;;;;;;12.86;88.14;98869.59;4993280;28;20051;-61
2023/10/05 07:37:15;;;;;;;15.52;3.50;;;;;;;12.94;88.01;98877.94;4994194;28;20068;-60
2023/10/05 07:39:46;;;;;;;14.45;3.30;;;;;;;12.93;90.42;98880.63;5003918;28;20408;-59
2023/10/05 07:42:17;;;;;;;11.38;3.08;;;;;;;12.89;88.87;98882.53;4993849;28;20221;-60
2023/10/05 07:44:47;;;;;;;10.95;2.97;;;;;;;12.86;88.85;98877.44;5003170;28;20156;-59
2023/10/05 07:47:20;;;;;;;9.52;2.47;;;;;;;12.85;89.21;98867.88;4993303;28;20115;-60
2023/10/05 07:49:53;;;;;;;9.90;2.63;;;;;;;12.80;91.47;98864.63;5003396;28;20050;-58
2023/10/05 07:52:23;;;;;;;14.02;3.47;;;;;;;12.69;92.95;98883.47;5013500;28;20557;-63
2023/10/05 07:54:54;;;;;;;13.18;3.00;;;;;;;12.59;95.01;98865.66;5023619;28;20048;-62
2023/10/05 07:57:25;;;;;;;9.10;2.40;;;;;;;12.49;94.71;98865.22;5013785;28;20652;-59
2023/10/05 07:59:57;;;;;;;12.57;3.72;;;;;;;12.42;96.93;98854.19;5011951;28;20053;-60
2023/10/05 08:02:29;;;;;;;11.55;3.25;;;;;;;12.38;98.78;98870.97;4993668;28;20137;-61
2023/10/05 08:05:01;;;;;;;12.82;3.17;;;;;;;12.33;100.00;98859.88;5004004;28;20065;-60
2023/10/05 08:07:33;;;;;;;13.90;3.45;;;;;;;12.26;100.00;98863.69;5012724;28;20196;-61
2023/10/05 08:10:03;;;;;;;10.82;3.00;;;;;;;12.24;100.00;98844.56;5023335;28;20115;-60
2023/10/05 08:12:35;;;;;;;17.23;3.67;;;;;;;12.15;100.00;98834.50;4993431;28;20046;-61
2023/10/05 08:15:06;;;;;;;8.18;2.65;;;;;;;12.21;100.00;98829.00;5003939;28;20081;-61
2023/10/05 08:17:38;;;;;;;10.05;2.63;;;;;;;12.25;100.00;98846.25;5012986;28;20178;-59
2023/10/05 08:20:11;;;;;;;11.93;3.22;;;;;;;12.28;100.00;98835.63;5018402;28;20061;-61
2023/10/05 08:22:42;;;;;;;15.35;3.42;;;;;;;12.23;100.00;98816.66;5023029;28;20369;-58
2023/10/05 08:25:12;;;;;;;11.77;3.08;;;;;;;12.22;100.00;98820.22;5013527;28;20053;-63
2023/10/05 08:27:43;;;;;;;9.50;3.60;;;;;;;12.25;100.00;98846.25;5023055;28;20056;-59
2023/10/05 08:30:14;;;;;;;9.68;2.95;;;;;;;12.30;100.00;98821.56;5012513;28;20055;-62
2023/10/05 08:32:48;;;;;;;12.93;3.85;;;;;;;12.33;100.00;98810.09;5023093;28;20135;-60
2023/10/05 08:35:18;;;;;;;13.23;3.70;;;;;;;12.35;100.00;98810.84;5016152;28;20099;-59
2023/10/05 08:37:49;;;;;;;13.30;4.32;;;;;;;12.29;100.00;98808.53;5026679;28;20446;-61
2023/10/05 08:40:37;;;;;;;10.55;3.58;;;;;;;12.19;100.00;98820.34;5016756;28;20059;-61
2023/10/05 08:43:13;;;;;;;12.23;3.85;;;;;;;12.21;100.00;98823.75;5024003;28;20107;-62
2023/10/05 08:45:49;;;;;;;19.00;4.70;;;;;;;12.18;100.00;98808.16;5008955;28;20090;-63
2023/10/05 08:48:35;;;;;;;15.35;4.40;;;;;;;12.12;100.00;98813.69;5015949;28;20056;-58
2023/10/05 08:51:10;;;;;;;16.00;4.40;;;;;;;12.09;100.00;98789.34;5026117;28;20365;-62
2023/10/05 08:53:44;;;;;;;11.10;4.15;;;;;;;12.14;100.00;98793.53;5006662;28;20057;-58
2023/10/05 08:56:15;;;;;;;10.98;3.90;;;;;;;12.11;100.00;98785.84;5021485;28;20153;-60
2023/10/05 08:58:47;;;;;;;12.48;4.20;;;;;;;12.06;100.00;98768.56;5031449;28;20064;-62
2023/10/05 09:01:50;;;;;;;8.85;3.28;;;;;;;11.95;100.00;98776.03;5020826;28;20388;-59
2023/10/05 09:04:45;;;;;;;10.18;3.65;;;;;;;11.91;100.00;98790.19;4960808;28;20500;-61
2023/10/05 09:07:43;;;;;;;10.82;4.38;;;;;;;11.91;100.00;98777.13;4968740;28;20088;-60
2023/10/05 09:10:31;;;;;;;11.60;4.28;;;;;;;11.96;100.00;98766.44;4964332;28;20057;-63
2023/10/05 09:13:13;;;;;;;13.50;3.88;;;;;;;11.98;100.00;98770.69;4979535;28;20629;-59
2023/10/05 09:15:57;;;;;;;13.43;3.97;;;;;;;11.91;100.00;98761.41;4968804;28;20049;-58
2023/10/05 09:22:05;;;;;;;14.85;4.03;;;;;;;11.75;100.00;98736.81;4944251;28;20303;-57
2023/10/05 09:24:42;;;;;;;11.77;3.70;;;;;;;11.69;100.00;98744.94;4923045;28;20070;-57
2023/10/05 09:28:07;;;;;;;9.70;4.00;;;;;;;11.71;100.00;98733.50;4943908;28;20065;-56
2023/10/05 09:30:55;;;;;;;9.52;4.05;;;;;;;11.70;100.00;98733.56;4934228;28;20058;-58
2023/10/05 09:33:34;;;;;;;12.30;3.35;;;;;;;11.49;100.00;98699.59;4940255;28;20117;-57
2023/10/05 09:36:19;;;;;;;12.85;3.25;;;;;;;11.62;100.00;98734.75;4960421;28;20080;-58
2023/10/05 09:38:54;;;;;;;13.38;3.35;;;;;;;11.68;100.00;98714.47;4961344;28;20131;-58
2023/10/05 09:41:30;;;;;;;9.05;2.70;;;;;;;11.60;100.00;98689.50;4961392;28;20100;-59
2023/10/05 09:44:01;;;;;;;13.75;3.25;;;;;;;11.68;100.00;98712.69;4957278;28;20058;-57
2023/10/05 09:46:35;;;;;;;7.57;2.30;;;;;;;11.37;100.00;98659.16;4957038;28;20086;-58
2023/10/05 09:49:14;;;;;;;7.03;2.75;;;;;;;11.64;100.00;98704.13;4987735;28;20049;-58
2023/10/05 09:51:48;;;;;;;4.80;1.88;;;;;;;11.68;100.00;98704.84;5002080;28;20485;-58
2023/10/05 09:54:27;;;;;;;6.97;2.20;;;;;;;11.74;100.00;98698.50;4991439;28;20053;-58
2023/10/05 09:56:59;;;;;;;6.97;2.38;;;;;;;11.75;100.00;98702.78;5001449;28;20046;-59
2023/10/05 09:59:32;;;;;;;8.00;2.08;;;;;;;11.72;100.00;98688.09;4991680;28;20226;-58
2023/10/05 10:02:05;;;;;;;5.35;2.08;;;;;;;11.68;100.00;98677.81;5001860;28;20053;-58
2023/10/05 10:04:39;;;;;;;7.07;1.50;;;;;;;11.72;100.00;98675.00;4998936;28;20053;-59
2023/10/05 10:07:22;;;;;;;5.65;1.92;;;;;;;11.75;100.00;98687.94;4991518;28;20962;-59
2023/10/05 10:09:59;;;;;;;2.83;1.20;;;;;;;11.57;100.00;98670.47;5000842;28;20056;-58
2023/10/05 10:12:38;;;;;;;6.20;1.15;;;;;;;11.71;100.00;98675.09;4990799;28;20049;-57
2023/10/05 10:15:24;;;;;;;0.60;0.60;;;;;;;11.72;100.00;98672.38;4995200;28;20443;-59
2023/10/05 10:18:13;;;;;;;3.38;1.30;;;;;;;11.74;100.00;98686.25;5001121;28;20057;-58
2023/10/05 10:20:49;;;;;;;3.47;1.10;;;;;;;11.78;100.00;98658.16;4977787;28;20120;-58
2023/10/05 10:23:27;;;;;;;2.78;0.80;;;;;;;11.73;100.00;98639.22;4982703;28;20487;-58
2023/10/05 10:26:16;;;;;;;5.60;0.90;;;;;;;11.73;100.00;98660.16;4992021;28;20061;-59
2023/10/05 10:28:56;;;;;;;2.40;0.95;;;;;;;11.70;100.00;98647.22;4996230;28;20056;-58
2023/10/05 10:31:47;;;;;;;4.25;1.65;;;;;;;11.64;100.00;98646.59;4994230;28;20048;-58
2023/10/05 10:34:49;;;;;;;5.97;1.50;;;;;;;11.63;100.00;98639.66;5000642;28;20060;-57
2023/10/05 10:37:39;;;;;;;4.35;1.40;;;;;;;11.51;100.00;98642.84;4990777;28;20069;-57
2023/10/05 10:40:25;;;;;;;5.05;1.00;;;;;;;11.57;100.00;98639.94;4990848;28;20411;-57
2023/10/05 10:43:06;;;;;;;2.03;0.80;;;;;;;11.54;100.00;98629.63;5004501;28;20118;-59
2023/10/05 10:45:42;;;;;;;3.42;0.90;;;;;;;11.53;100.00;98622.69;4999680;28;20183;-58
2023/10/05 10:48:21;;;;;;;2.33;0.77;;;;;;;11.50;100.00;98646.38;5018342;28;20103;-59
2023/10/05 10:50:54;;;;;;;1.92;0.63;;;;;;;10.93;100.00;98533.06;5029753;28;20052;-58
2023/10/05 10:53:30;;;;;;;2.50;0.80;;;;;;;11.53;100.00;98633.16;5018090;28;20057;-59
2023/10/05 10:56:21;;;;;;;1.02;0.70;;;;;;;11.48;100.00;98640.34;5028522;28;20090;-59
2023/10/05 10:58:56;;;;;;;2.83;0.88;;;;;;;11.47;100.00;98630.81;5029176;28;20045;-59
2023/10/05 11:01:40;;;;;;;3.92;0.93;;;;;;;11.41;100.00;98612.81;5018054;28;20052;-57
2023/10/05 11:07:29;;;;;;;3.67;1.13;;;;;;;11.22;100.00;98592.72;5018305;28;20053;-59
2023/10/05 11:10:18;;;;;;;3.28;1.60;;;;;;;11.12;100.00;98591.44;5028843;28;20137;-58
2023/10/05 11:12:57;;;;;;;2.40;1.10;;;;;;;11.15;100.00;98595.69;5023419;28;20057;-57
2023/10/05 11:15:31;;;;;;;4.38;1.27;;;;;;;11.13;100.00;98598.38;5018259;28;20055;-58
2023/10/05 11:18:17;;;;;;;5.97;1.63;;;;;;;10.96;100.00;98574.78;5028960;28;20060;-58
2023/10/05 11:20:53;;;;;;;4.22;1.05;;;;;;;10.87;100.00;98580.41;5023724;28;20155;-58
2023/10/05 11:23:29;;;;;;;4.85;1.13;;;;;;;10.96;100.00;98586.06;5018788;28;20084;-58
2023/10/05 11:26:28;;;;;;;6.00;1.67;;;;;;;10.63;100.00;98530.91;5028614;28;20551;-59
2023/10/05 11:29:22;;;;;;;4.78;1.50;;;;;;;10.78;100.00;98561.59;5017819;28;20202;-58
2023/10/05 11:32:01;;;;;;;5.15;2.35;;;;;;;10.98;100.00;98578.13;5028619;28;20239;-58
2023/10/05 11:34:55;;;;;;;7.32;1.70;;;;;;;10.95;100.00;98541.69;5028343;28;20060;-59
2023/10/05 11:37:58;;;;;;;5.55;1.80;;;;;;;10.91;100.00;98529.72;5019048;28;20051;-59
2023/10/05 11:40:34;;;;;;;2.75;1.35;;;;;;;10.96;100.00;98548.63;5018876;28;21011;-58
2023/10/05 11:43:13;;;;;;;4.80;1.35;;;;;;;10.47;100.00;98446.34;5029159;28;20486;-59
2023/10/05 11:46:12;;;;;;;4.55;1.83;;;;;;;11.00;100.00;98539.72;5018661;28;20063;-58
2023/10/05 11:48:54;;;;;;;5.25;1.30;;;;;;;10.79;100.00;98542.38;5018300;28;20060;-60
2023/10/05 11:51:41;;;;;;;3.95;1.52;;;;;;;10.85;100.00;98571.78;5017994;28;20052;-59
2023/10/05 11:54:15;;;;;;;4.78;1.75;;;;;;;10.94;100.00;98560.91;5016388;28;20048;-59
2023/10/05 11:56:47;;;;;;;7.10;2.45;;;;;;;10.92;100.00;98547.91;5009237;28;20061;-59
2023/10/05 11:59:28;;;;;;;3.83;1.50;;;;;;;10.88;100.00;98562.00;5000360;28;20140;-58
2023/10/05 12:02:05;;;;;;;4.38;2.03;;;;;;;10.91;100.00;98555.84;5016895;28;20052;-59
2023/10/05 12:04:42;;;;;;;6.72;1.80;;;;;;;10.86;100.00;98542.09;5007628;28;20057;-58
2023/10/05 12:07:15;;;;;;;4.80;1.92;;;;;;;10.80;100.00;98538.84;5008112;28;20053;-58
2023/10/05 12:09:47;;;;;;;3.47;1.20;;;;;;;10.90;100.00;98554.97;5021534;28;20055;-59
2023/10/05 12:12:20;;;;;;;3.92;1.10;;;;;;;11.01;100.00;98551.88;5011732;28;20045;-58
2023/10/05 12:14:51;;;;;;;5.93;1.50;;;;;;;10.96;100.00;98546.03;5032634;28;20053;-58